createdAt,value
2019-02-15T00:00:01.895Z,24.82
2019-02-15T00:01:07.176Z,26.85
2019-02-15T00:02:10.893Z,22.10
2019-02-15T00:03:14.611Z,25.35
2019-02-15T00:04:18.254Z,24.63
2019-02-15T00:05:21.853Z,22.27
2019-02-15T00:06:25.550Z,26.60
2019-02-15T00:07:29.288Z,24.67
2019-02-15T00:08:33.234Z,23.27
2019-02-15T00:09:37.244Z,27.22
2019-02-15T00:10:40.987Z,26.07
2019-02-15T00:11:44.629Z,24.25
2019-02-15T00:12:48.273Z,25.05
2019-02-15T00:13:51.996Z,25.75
2019-02-15T00:14:55.574Z,25.88
2019-02-15T00:15:59.247Z,25.65
2019-02-15T00:17:02.966Z,29.07
2019-02-15T00:18:11.059Z,25.77
2019-02-15T00:19:28.386Z,29.52
2019-02-15T00:20:39.639Z,22.65
2019-02-15T00:21:43.335Z,21.55
2019-02-15T00:22:47.039Z,30.15
2019-02-15T00:23:50.694Z,28.85
2019-02-15T00:24:54.335Z,24.37
2019-02-15T00:25:58.113Z,26.02
2019-02-15T00:27:01.866Z,24.55
2019-02-15T00:28:05.571Z,23.83
2019-02-15T00:29:09.137Z,26.12
2019-02-15T00:30:12.853Z,26.42
2019-02-15T00:31:17.778Z,24.47
2019-02-15T00:32:21.463Z,26.60
2019-02-15T00:33:25.219Z,26.15
2019-02-15T00:34:28.953Z,25.50
2019-02-15T00:35:32.597Z,32.35
2019-02-15T00:36:36.642Z,22.50
2019-02-15T00:37:40.377Z,24.02
2019-02-15T00:38:43.975Z,28.02
2019-02-15T00:39:47.617Z,26.20
2019-02-15T00:40:51.264Z,27.35
2019-02-15T00:41:54.899Z,25.37
2019-02-15T00:42:58.539Z,26.50
2019-02-15T00:44:02.217Z,27.98
2019-02-15T00:45:08.224Z,30.17
2019-02-15T00:46:16.455Z,26.90
2019-02-15T00:47:37.808Z,23.98
2019-02-15T00:48:41.463Z,26.25
2019-02-15T00:49:46.152Z,23.98
2019-02-15T00:50:51.433Z,25.37
2019-02-15T00:51:56.641Z,24.60
2019-02-15T00:53:04.932Z,24.47
2019-02-15T00:54:13.209Z,26.55
2019-02-15T00:55:18.491Z,22.55
2019-02-15T00:56:38.849Z,23.92
2019-02-15T00:57:49.877Z,21.17
2019-02-15T00:58:55.191Z,21.95
2019-02-15T01:00:16.915Z,23.92
2019-02-15T01:01:28.250Z,21.02
2019-02-15T01:02:33.537Z,23.75
2019-02-15T01:03:45.858Z,26.73
2019-02-15T01:04:51.437Z,22.75
2019-02-15T01:06:02.403Z,26.82
2019-02-15T01:07:24.014Z,28.62
2019-02-15T01:08:45.752Z,25.32
2019-02-15T01:09:54.029Z,23.73
2019-02-15T01:11:05.384Z,25.48
2019-02-15T01:12:10.672Z,26.68
2019-02-15T01:13:14.820Z,27.80
2019-02-15T01:14:18.455Z,23.22
2019-02-15T01:15:22.104Z,24.75
2019-02-15T01:16:25.749Z,22.50
2019-02-15T01:17:29.390Z,28.95
2019-02-15T01:18:33.059Z,24.18
2019-02-15T01:19:36.701Z,23.98
2019-02-15T01:20:40.338Z,22.15
2019-02-15T01:21:43.981Z,21.75
2019-02-15T01:22:47.619Z,22.05
2019-02-15T01:23:51.547Z,23.65
2019-02-15T01:24:55.131Z,23.92
2019-02-15T01:26:00.344Z,24.98
2019-02-15T01:27:05.628Z,23.90
2019-02-15T01:28:10.911Z,30.02
2019-02-15T01:29:32.638Z,26.82
2019-02-15T01:30:37.930Z,25.45
2019-02-15T01:31:59.605Z,24.35
2019-02-15T01:33:05.018Z,22.60
2019-02-15T01:34:16.334Z,23.30
2019-02-15T01:35:33.642Z,24.63
2019-02-15T01:36:54.883Z,23.60
2019-02-15T01:38:06.378Z,23.90
2019-02-15T01:39:12.166Z,23.50
2019-02-15T01:40:17.451Z,21.57
2019-02-15T01:41:38.374Z,21.75
2019-02-15T01:42:43.658Z,25.20
2019-02-15T01:43:54.911Z,26.05
2019-02-15T01:45:03.134Z,25.88
2019-02-15T01:46:08.415Z,23.35
2019-02-15T01:47:13.740Z,24.40
2019-02-15T01:48:18.620Z,24.75
2019-02-15T01:49:22.276Z,24.12
2019-02-15T01:50:26.022Z,26.27
2019-02-15T01:51:29.666Z,24.20
2019-02-15T01:52:33.735Z,22.85
2019-02-15T01:53:37.460Z,18.98
2019-02-15T01:54:41.531Z,20.43
2019-02-15T01:55:45.180Z,23.10
2019-02-15T01:56:48.684Z,21.48
2019-02-15T01:57:52.415Z,23.05
2019-02-15T01:58:56.070Z,22.20
2019-02-15T01:59:59.705Z,22.27
2019-02-15T02:01:03.414Z,21.30
2019-02-15T02:02:07.058Z,25.48
2019-02-15T02:03:10.736Z,22.40
2019-02-15T02:04:14.804Z,20.43
2019-02-15T02:05:18.448Z,21.37
2019-02-15T02:06:22.161Z,21.75
2019-02-15T02:07:25.977Z,20.10
2019-02-15T02:08:29.961Z,19.45
2019-02-15T02:09:33.610Z,23.18
2019-02-15T02:10:37.322Z,19.87
2019-02-15T02:11:40.963Z,21.37
2019-02-15T02:12:44.675Z,20.27
2019-02-15T02:13:49.877Z,20.25
2019-02-15T02:14:53.715Z,17.40
2019-02-15T02:15:57.272Z,21.00
2019-02-15T02:17:00.986Z,16.95
2019-02-15T02:18:04.687Z,23.07
2019-02-15T02:19:08.365Z,20.95
2019-02-15T02:20:12.012Z,18.23
2019-02-15T02:21:15.726Z,18.35
2019-02-15T02:22:19.434Z,22.13
2019-02-15T02:23:23.080Z,21.40
2019-02-15T02:24:26.864Z,20.32
2019-02-15T02:25:30.886Z,21.37
2019-02-15T02:26:34.547Z,20.12
2019-02-15T02:27:38.258Z,22.70
2019-02-15T02:28:42.047Z,28.00
2019-02-15T02:29:45.718Z,20.85
2019-02-15T02:30:49.377Z,19.62
2019-02-15T02:31:53.455Z,24.05
2019-02-15T02:32:57.109Z,24.75
2019-02-15T02:34:00.797Z,26.45
2019-02-15T02:35:05.948Z,21.77
2019-02-15T02:36:09.591Z,28.12
2019-02-15T02:37:13.243Z,21.02
2019-02-15T02:38:16.960Z,28.80
2019-02-15T02:39:20.947Z,23.73
2019-02-15T02:40:24.685Z,19.40
2019-02-15T02:41:28.330Z,28.65
2019-02-15T02:42:31.975Z,21.45
2019-02-15T02:43:35.618Z,23.65
2019-02-15T02:44:39.822Z,23.83
2019-02-15T02:45:43.510Z,21.68
2019-02-15T02:46:47.217Z,21.27
2019-02-15T02:47:50.859Z,25.27
2019-02-15T02:48:54.519Z,20.60
2019-02-15T02:49:58.157Z,21.05
2019-02-15T02:51:01.906Z,22.10
2019-02-15T02:52:05.622Z,27.73
2019-02-15T02:53:09.270Z,24.20
2019-02-15T02:54:12.849Z,27.20
2019-02-15T02:55:16.497Z,20.20
2019-02-15T02:56:20.181Z,22.05
2019-02-15T02:57:23.825Z,22.10
2019-02-15T02:58:27.472Z,24.63
2019-02-15T02:59:31.121Z,20.15
2019-02-15T03:00:34.767Z,18.32
2019-02-15T03:01:38.488Z,21.25
2019-02-15T03:02:42.126Z,19.90
2019-02-15T03:03:46.128Z,22.48
2019-02-15T03:04:49.772Z,21.80
2019-02-15T03:05:53.414Z,24.20
2019-02-15T03:06:57.093Z,21.37
2019-02-15T03:08:00.731Z,21.40
2019-02-15T03:09:07.335Z,23.20
2019-02-15T03:10:11.020Z,22.40
2019-02-15T03:11:14.629Z,24.25
2019-02-15T03:12:18.280Z,25.40
2019-02-15T03:13:21.921Z,23.00
2019-02-15T03:14:25.621Z,22.90
2019-02-15T03:15:29.281Z,21.33
2019-02-15T03:16:32.919Z,19.77
2019-02-15T03:17:36.600Z,22.48
2019-02-15T03:18:40.250Z,22.15
2019-02-15T03:19:43.893Z,22.90
2019-02-15T03:20:47.473Z,23.95
2019-02-15T03:21:51.034Z,22.67
2019-02-15T03:22:54.717Z,24.97
2019-02-15T03:23:58.397Z,21.73
2019-02-15T03:25:02.126Z,21.52
2019-02-15T03:26:05.788Z,18.00
2019-02-15T03:27:09.411Z,18.70
2019-02-15T03:28:13.050Z,19.48
2019-02-15T03:29:16.776Z,25.30
2019-02-15T03:30:20.380Z,22.52
2019-02-15T03:31:23.915Z,21.05
2019-02-15T03:32:27.578Z,21.45
2019-02-15T03:33:31.207Z,21.97
2019-02-15T03:34:36.403Z,23.22
2019-02-15T03:35:41.985Z,26.25
2019-02-15T03:36:47.278Z,25.77
2019-02-15T03:37:55.421Z,22.70
2019-02-15T03:39:00.687Z,21.15
2019-02-15T03:40:08.075Z,28.47
2019-02-15T03:41:28.342Z,22.00
2019-02-15T03:42:31.964Z,22.52
2019-02-15T03:43:35.531Z,22.70
2019-02-15T03:44:39.545Z,21.90
2019-02-15T03:45:43.930Z,25.37
2019-02-15T03:46:47.574Z,25.65
2019-02-15T03:47:51.229Z,24.45
2019-02-15T03:48:54.857Z,23.35
2019-02-15T03:49:58.502Z,24.52
2019-02-15T03:51:02.171Z,23.38
2019-02-15T03:52:05.816Z,22.77
2019-02-15T03:53:09.472Z,26.55
2019-02-15T03:54:13.365Z,24.75
2019-02-15T03:55:17.014Z,24.92
2019-02-15T03:56:20.688Z,28.55
2019-02-15T03:57:24.324Z,29.10
2019-02-15T03:58:28.023Z,25.85
2019-02-15T03:59:31.695Z,24.23
2019-02-15T04:00:35.332Z,23.92
2019-02-15T04:01:38.996Z,22.17
2019-02-15T04:02:42.623Z,21.95
2019-02-15T04:03:46.274Z,24.65
2019-02-15T04:04:49.924Z,22.30
2019-02-15T04:05:53.647Z,24.57
2019-02-15T04:06:57.328Z,22.55
2019-02-15T04:08:01.045Z,22.45
2019-02-15T04:09:05.524Z,23.25
2019-02-15T04:10:09.768Z,20.43
2019-02-15T04:11:13.426Z,18.92
2019-02-15T04:12:17.045Z,25.77
2019-02-15T04:13:20.765Z,23.00
2019-02-15T04:14:32.518Z,20.12
2019-02-15T04:15:29.868Z,20.00
2019-02-15T04:16:33.511Z,21.97
2019-02-15T04:17:37.183Z,17.30
2019-02-15T04:18:40.893Z,21.70
2019-02-15T04:19:44.478Z,18.45
2019-02-15T04:20:48.449Z,17.42
2019-02-15T04:21:52.158Z,19.55
2019-02-15T04:22:55.826Z,21.97
2019-02-15T04:23:59.478Z,23.27
2019-02-15T04:25:03.196Z,24.90
2019-02-15T04:26:06.845Z,29.15
2019-02-15T04:27:10.922Z,38.23
2019-02-15T04:28:14.613Z,28.90
2019-02-15T04:29:18.250Z,28.83
2019-02-15T04:30:21.957Z,36.63
2019-02-15T04:31:25.666Z,47.30
2019-02-15T04:32:29.306Z,34.20
2019-02-15T04:33:33.417Z,37.40
2019-02-15T04:34:37.165Z,32.78
2019-02-15T04:35:40.806Z,29.07
2019-02-15T04:36:44.455Z,32.98
2019-02-15T04:37:48.159Z,63.55
2019-02-15T04:38:51.857Z,50.98
2019-02-15T04:39:55.502Z,38.65
2019-02-15T04:40:59.148Z,62.65
2019-02-15T04:42:03.030Z,32.45
2019-02-15T04:43:06.741Z,33.35
2019-02-15T04:44:10.422Z,37.75
2019-02-15T04:45:14.336Z,35.35
2019-02-15T04:46:17.987Z,41.20
2019-02-15T04:47:21.713Z,39.05
2019-02-15T04:48:25.356Z,35.03
2019-02-15T04:49:29.031Z,38.25
2019-02-15T04:50:32.677Z,36.90
2019-02-15T04:51:36.254Z,28.95
2019-02-15T04:52:39.965Z,22.15
2019-02-15T04:53:43.687Z,23.57
2019-02-15T04:54:47.356Z,20.85
2019-02-15T04:55:51.070Z,24.02
2019-02-15T04:56:54.658Z,23.92
2019-02-15T04:57:58.311Z,20.25
2019-02-15T04:59:02.110Z,20.68
2019-02-15T05:00:08.257Z,19.50
2019-02-15T05:01:11.970Z,26.55
2019-02-15T05:02:15.616Z,20.17
2019-02-15T05:03:19.645Z,19.75
2019-02-15T05:04:23.376Z,21.52
2019-02-15T05:05:27.116Z,21.17
2019-02-15T05:06:30.824Z,25.17
2019-02-15T05:07:36.035Z,19.07
2019-02-15T05:08:39.693Z,18.77
2019-02-15T05:09:43.258Z,22.13
2019-02-15T05:10:47.097Z,18.95
2019-02-15T05:11:50.823Z,18.42
2019-02-15T05:12:54.464Z,18.20
2019-02-15T05:13:58.108Z,21.00
2019-02-15T05:15:01.676Z,23.42
2019-02-15T05:16:05.395Z,25.52
2019-02-15T05:17:09.412Z,27.62
2019-02-15T05:18:13.070Z,20.10
2019-02-15T05:19:16.795Z,23.10
2019-02-15T05:20:20.436Z,23.85
2019-02-15T05:21:24.108Z,20.62
2019-02-15T05:22:27.746Z,21.57
2019-02-15T05:23:31.310Z,20.05
2019-02-15T05:24:34.954Z,20.65
2019-02-15T05:25:38.534Z,17.42
2019-02-15T05:26:42.207Z,15.08
2019-02-15T05:27:45.845Z,18.98
2019-02-15T05:28:49.549Z,15.58
2019-02-15T05:29:53.065Z,18.30
2019-02-15T05:30:56.726Z,18.15
2019-02-15T05:32:00.719Z,25.55
2019-02-15T05:33:04.739Z,17.45
2019-02-15T05:34:08.355Z,13.83
2019-02-15T05:35:12.625Z,13.45
2019-02-15T05:36:16.346Z,17.52
2019-02-15T05:37:20.007Z,16.02
2019-02-15T05:38:23.716Z,16.17
2019-02-15T05:39:27.360Z,14.70
2019-02-15T05:40:31.042Z,13.75
2019-02-15T05:41:34.720Z,16.05
2019-02-15T05:42:38.351Z,16.17
2019-02-15T05:43:42.032Z,14.30
2019-02-15T05:44:45.677Z,15.50
2019-02-15T05:45:49.344Z,13.45
2019-02-15T05:46:52.978Z,16.15
2019-02-15T05:47:56.669Z,19.90
2019-02-15T05:49:00.757Z,17.15
2019-02-15T05:50:05.108Z,17.57
2019-02-15T05:51:08.756Z,17.77
2019-02-15T05:52:12.419Z,14.40
2019-02-15T05:53:16.126Z,17.65
2019-02-15T05:54:19.931Z,22.45
2019-02-15T05:55:23.579Z,21.65
2019-02-15T05:56:27.219Z,28.42
2019-02-15T05:57:30.881Z,76.40
2019-02-15T05:58:34.526Z,49.80
2019-02-15T05:59:38.214Z,34.15
2019-02-15T06:00:41.863Z,34.50
2019-02-15T06:01:45.590Z,47.40
2019-02-15T06:02:49.165Z,35.15
2019-02-15T06:03:52.805Z,31.25
2019-02-15T06:04:56.410Z,35.52
2019-02-15T06:06:00.187Z,36.42
2019-02-15T06:07:03.827Z,31.70
2019-02-15T06:08:07.462Z,21.27
2019-02-15T06:09:11.448Z,27.52
2019-02-15T06:10:15.125Z,29.75
2019-02-15T06:11:18.764Z,31.05
2019-02-15T06:12:22.418Z,27.20
2019-02-15T06:13:26.060Z,29.05
2019-02-15T06:14:29.709Z,31.27
2019-02-15T06:15:33.389Z,25.05
2019-02-15T06:16:37.072Z,27.05
2019-02-15T06:17:40.709Z,25.85
2019-02-15T06:18:44.278Z,24.57
2019-02-15T06:19:48.071Z,34.18
2019-02-15T06:20:51.860Z,32.13
2019-02-15T06:21:55.572Z,21.20
2019-02-15T06:22:59.085Z,19.27
2019-02-15T06:24:03.118Z,20.95
2019-02-15T06:25:06.861Z,19.87
2019-02-15T06:26:10.604Z,15.23
2019-02-15T06:27:14.315Z,28.63
2019-02-15T06:28:18.027Z,16.25
2019-02-15T06:29:21.675Z,15.32
2019-02-15T06:30:25.385Z,19.50
2019-02-15T06:31:29.139Z,19.87
2019-02-15T06:32:32.808Z,16.13
2019-02-15T06:33:36.390Z,14.13
2019-02-15T06:34:40.023Z,10.87
2019-02-15T06:35:43.824Z,12.68
2019-02-15T06:36:47.614Z,9.85
2019-02-15T06:37:51.312Z,10.83
2019-02-15T06:38:54.950Z,12.95
2019-02-15T06:39:58.600Z,19.00
2019-02-15T06:41:02.273Z,22.25
2019-02-15T06:42:06.041Z,24.53
2019-02-15T06:43:09.688Z,24.98
2019-02-15T06:44:14.338Z,21.15
2019-02-15T06:45:24.392Z,23.37
2019-02-15T06:46:23.414Z,25.08
2019-02-15T06:47:27.106Z,23.03
2019-02-15T06:48:30.667Z,25.60
2019-02-15T06:49:34.658Z,26.73
2019-02-15T06:50:38.286Z,28.07
2019-02-15T06:51:41.996Z,34.53
2019-02-15T06:52:45.728Z,35.20
2019-02-15T06:53:49.364Z,34.30
2019-02-15T06:54:53.390Z,37.15
2019-02-15T06:55:58.049Z,38.97
2019-02-15T06:57:01.786Z,29.13
2019-02-15T06:58:05.539Z,32.05
2019-02-15T06:59:22.971Z,25.95
2019-02-15T07:00:37.348Z,27.73
2019-02-15T07:01:42.609Z,34.77
2019-02-15T07:02:50.553Z,44.38
2019-02-15T07:03:55.890Z,71.43
2019-02-15T07:05:13.562Z,50.52
2019-02-15T07:06:17.275Z,37.88
2019-02-15T07:07:20.960Z,31.00
2019-02-15T07:08:24.596Z,27.47
2019-02-15T07:09:28.509Z,53.83
2019-02-15T07:10:32.155Z,35.27
2019-02-15T07:11:35.880Z,37.60
2019-02-15T07:12:39.590Z,31.67
2019-02-15T07:13:43.225Z,34.80
2019-02-15T07:14:46.821Z,34.90
2019-02-15T07:15:50.528Z,69.67
2019-02-15T07:16:54.239Z,36.67
2019-02-15T07:17:59.523Z,26.53
2019-02-15T07:19:04.688Z,52.73
2019-02-15T07:20:10.068Z,16.73
2019-02-15T07:21:16.526Z,19.60
2019-02-15T07:22:20.230Z,24.30
2019-02-15T07:23:23.856Z,21.27
2019-02-15T07:24:27.497Z,14.30
2019-02-15T07:25:31.165Z,21.70
2019-02-15T07:26:34.868Z,17.23
2019-02-15T07:27:38.579Z,19.57
2019-02-15T07:28:42.213Z,14.83
2019-02-15T07:29:45.849Z,14.93
2019-02-15T07:30:49.516Z,18.23
2019-02-15T07:31:53.078Z,21.97
2019-02-15T07:32:57.021Z,19.67
2019-02-15T07:34:00.656Z,18.37
2019-02-15T07:35:05.083Z,11.13
2019-02-15T07:36:09.128Z,16.00
2019-02-15T07:37:12.796Z,13.80
2019-02-15T07:38:16.430Z,10.90
2019-02-15T07:39:19.991Z,11.10
2019-02-15T07:40:23.679Z,10.90
2019-02-15T07:41:27.333Z,9.80
2019-02-15T07:42:30.970Z,9.40
2019-02-15T07:43:36.220Z,11.97
2019-02-15T07:44:42.522Z,12.60
2019-02-15T07:45:46.144Z,9.43
2019-02-15T07:46:49.827Z,8.80
2019-02-15T07:47:53.452Z,10.97
2019-02-15T07:48:57.085Z,6.50
2019-02-15T07:50:00.948Z,8.73
2019-02-15T07:51:09.577Z,8.83
2019-02-15T07:52:12.150Z,7.40
2019-02-15T07:53:15.778Z,7.60
2019-02-15T07:54:19.694Z,6.20
2019-02-15T07:55:26.090Z,8.10
2019-02-15T07:56:32.548Z,4.70
2019-02-15T07:57:36.206Z,5.27
2019-02-15T07:58:41.272Z,5.47
2019-02-15T07:59:44.908Z,7.47
2019-02-15T08:00:48.541Z,5.47
2019-02-15T08:02:01.339Z,7.63
2019-02-15T08:02:57.794Z,6.77
2019-02-15T08:04:01.424Z,7.63
2019-02-15T08:05:07.071Z,8.23
2019-02-15T08:06:10.842Z,5.83
2019-02-15T08:07:14.459Z,4.67
2019-02-15T08:08:18.449Z,4.70
2019-02-15T08:09:22.073Z,4.70
2019-02-15T08:10:25.699Z,8.13
2019-02-15T08:11:29.380Z,18.90
2019-02-15T08:12:33.366Z,18.17
2019-02-15T08:13:37.088Z,20.40
2019-02-15T08:14:40.725Z,17.90
2019-02-15T08:15:51.543Z,15.27
2019-02-15T08:16:50.078Z,14.07
2019-02-15T08:17:53.637Z,15.33
2019-02-15T08:18:57.412Z,10.60
2019-02-15T08:20:01.339Z,10.30
2019-02-15T08:21:05.158Z,12.27
2019-02-15T08:22:08.802Z,12.40
2019-02-15T08:23:12.431Z,19.23
2019-02-15T08:24:16.044Z,18.10
2019-02-15T08:25:20.289Z,16.27
2019-02-15T08:26:23.928Z,16.53
2019-02-15T08:27:31.406Z,15.77
2019-02-15T08:28:34.918Z,10.37
2019-02-15T08:29:38.581Z,11.03
2019-02-15T08:30:42.216Z,10.60
2019-02-15T08:31:45.860Z,9.87
2019-02-15T08:32:49.493Z,7.93
2019-02-15T08:33:53.129Z,5.23
2019-02-15T08:34:56.801Z,4.73
2019-02-15T08:36:00.426Z,6.20
2019-02-15T08:37:04.062Z,7.80
2019-02-15T08:38:07.690Z,4.17
2019-02-15T08:39:11.416Z,3.93
2019-02-15T08:40:15.160Z,8.03
2019-02-15T08:41:18.713Z,6.87
2019-02-15T08:42:22.427Z,15.57
2019-02-15T08:43:26.073Z,14.50
2019-02-15T08:44:29.714Z,12.67
2019-02-15T08:45:33.441Z,6.80
2019-02-15T08:46:37.070Z,5.73
2019-02-15T08:47:40.901Z,5.97
2019-02-15T08:48:46.505Z,11.03
2019-02-15T08:49:49.870Z,8.43
2019-02-15T08:50:53.616Z,7.27
2019-02-15T08:51:57.320Z,5.20
2019-02-15T08:53:00.934Z,4.57
2019-02-15T08:54:04.983Z,6.70
2019-02-15T08:55:12.102Z,6.57
2019-02-15T08:56:15.765Z,7.53
2019-02-15T08:57:19.392Z,5.47
2019-02-15T08:58:23.025Z,6.13
2019-02-15T08:59:26.510Z,5.93
2019-02-15T09:00:30.204Z,8.73
2019-02-15T09:01:33.865Z,5.33
2019-02-15T09:02:37.500Z,4.00
2019-02-15T09:03:41.133Z,6.53
2019-02-15T09:04:44.837Z,6.93
2019-02-15T09:05:48.536Z,7.50
2019-02-15T09:06:52.192Z,4.60
2019-02-15T09:07:55.818Z,5.77
2019-02-15T09:08:59.767Z,3.00
2019-02-15T09:10:04.260Z,3.57
2019-02-15T09:11:07.966Z,4.07
2019-02-15T09:12:11.619Z,4.03
2019-02-15T09:13:15.250Z,6.93
2019-02-15T09:14:18.946Z,4.40
2019-02-15T09:15:23.947Z,5.77
2019-02-15T09:16:27.578Z,2.40
2019-02-15T09:17:31.167Z,2.33
2019-02-15T09:18:34.958Z,1.93
2019-02-15T09:19:38.651Z,5.90
2019-02-15T09:20:42.215Z,3.23
2019-02-15T09:21:45.846Z,7.67
2019-02-15T09:22:49.886Z,5.50
2019-02-15T09:23:53.590Z,4.30
2019-02-15T09:24:57.270Z,3.20
2019-02-15T09:26:01.270Z,5.97
2019-02-15T09:27:06.545Z,4.60
2019-02-15T09:28:16.724Z,6.40
2019-02-15T09:29:20.425Z,8.17
2019-02-15T09:30:24.134Z,3.87
2019-02-15T09:31:27.762Z,4.67
2019-02-15T09:32:31.394Z,7.03
2019-02-15T09:33:35.418Z,7.13
2019-02-15T09:34:39.128Z,9.50
2019-02-15T09:35:42.823Z,8.20
2019-02-15T09:36:46.455Z,5.80
2019-02-15T09:37:50.458Z,3.60
2019-02-15T09:38:54.499Z,6.80
2019-02-15T09:39:58.197Z,5.93
2019-02-15T09:41:01.836Z,3.43
2019-02-15T09:42:05.556Z,2.50
2019-02-15T09:43:09.114Z,3.00
2019-02-15T09:44:12.780Z,2.73
2019-02-15T09:45:16.494Z,3.90
2019-02-15T09:46:20.425Z,3.17
2019-02-15T09:47:24.130Z,5.10
2019-02-15T09:48:27.766Z,4.53
2019-02-15T09:49:31.432Z,3.43
2019-02-15T09:50:35.143Z,4.90
2019-02-15T09:51:38.770Z,2.77
2019-02-15T09:52:42.408Z,4.37
2019-02-15T09:53:46.050Z,4.50
2019-02-15T09:54:49.869Z,4.33
2019-02-15T09:55:53.503Z,3.83
2019-02-15T09:56:57.065Z,2.60
2019-02-15T09:58:01.113Z,4.07
2019-02-15T09:59:04.745Z,5.80
2019-02-15T10:00:10.187Z,2.87
2019-02-15T10:01:13.817Z,5.27
2019-02-15T10:02:17.447Z,4.80
2019-02-15T10:03:21.081Z,3.50
2019-02-15T10:04:24.707Z,3.63
2019-02-15T10:05:28.380Z,2.57
2019-02-15T10:06:31.930Z,1.67
2019-02-15T10:07:35.561Z,3.67
2019-02-15T10:08:39.194Z,3.03
2019-02-15T10:09:42.889Z,2.63
2019-02-15T10:10:46.672Z,2.77
2019-02-15T10:11:50.304Z,4.87
2019-02-15T10:12:53.936Z,7.57
2019-02-15T10:13:57.568Z,10.20
2019-02-15T10:15:01.204Z,5.23
2019-02-15T10:16:04.862Z,7.40
2019-02-15T10:17:08.507Z,5.07
2019-02-15T10:18:12.126Z,4.20
2019-02-15T10:19:22.176Z,4.00
2019-02-15T10:20:21.032Z,4.07
2019-02-15T10:21:24.700Z,11.87
2019-02-15T10:22:28.331Z,7.43
2019-02-15T10:23:31.979Z,4.20
2019-02-15T10:24:35.613Z,16.40
2019-02-15T10:25:39.398Z,6.57
2019-02-15T10:26:43.346Z,4.97
2019-02-15T10:27:46.982Z,4.27
2019-02-15T10:28:50.975Z,9.30
2019-02-15T10:29:54.554Z,3.87
2019-02-15T10:30:58.180Z,5.53
2019-02-15T10:32:01.851Z,4.73
2019-02-15T10:33:05.491Z,3.93
2019-02-15T10:34:09.118Z,5.77
2019-02-15T10:35:12.752Z,8.00
2019-02-15T10:36:16.382Z,9.77
2019-02-15T10:37:20.046Z,5.37
2019-02-15T10:38:23.976Z,4.93
2019-02-15T10:39:27.539Z,4.47
2019-02-15T10:40:31.186Z,3.10
2019-02-15T10:41:34.822Z,14.73
2019-02-15T10:42:38.504Z,6.90
2019-02-15T10:43:42.076Z,5.87
2019-02-15T10:44:45.805Z,5.70
2019-02-15T10:45:49.435Z,6.97
2019-02-15T10:46:53.065Z,4.37
2019-02-15T10:47:56.729Z,3.53
2019-02-15T10:49:00.738Z,4.23
2019-02-15T10:50:05.794Z,3.47
2019-02-15T10:51:09.414Z,1.93
2019-02-15T10:52:13.044Z,5.07
2019-02-15T10:53:16.703Z,3.30
2019-02-15T10:54:20.708Z,2.77
2019-02-15T10:55:24.337Z,2.73
2019-02-15T10:56:27.974Z,3.30
2019-02-15T10:57:31.613Z,2.37
2019-02-15T10:58:35.436Z,5.47
2019-02-15T10:59:39.065Z,5.60
2019-02-15T11:00:42.815Z,2.90
2019-02-15T11:01:46.522Z,3.00
2019-02-15T11:02:50.223Z,3.23
2019-02-15T11:03:53.892Z,2.67
2019-02-15T11:04:57.519Z,2.77
2019-02-15T11:06:01.216Z,8.37
2019-02-15T11:07:04.856Z,6.37
2019-02-15T11:08:08.612Z,4.80
2019-02-15T11:09:12.858Z,4.33
2019-02-15T11:10:16.479Z,5.23
2019-02-15T11:11:20.413Z,4.50
2019-02-15T11:12:24.122Z,3.33
2019-02-15T11:13:27.851Z,4.43
2019-02-15T11:14:33.693Z,4.73
2019-02-15T11:15:37.347Z,6.93
2019-02-15T11:16:46.947Z,3.83
2019-02-15T11:17:46.538Z,3.57
2019-02-15T11:18:50.266Z,4.00
2019-02-15T11:19:53.986Z,4.70
2019-02-15T11:20:57.683Z,6.83
2019-02-15T11:22:01.560Z,2.97
2019-02-15T11:23:07.960Z,2.50
2019-02-15T11:24:11.665Z,4.33
2019-02-15T11:25:15.431Z,6.30
2019-02-15T11:26:24.820Z,4.43
2019-02-15T11:27:24.997Z,3.77
2019-02-15T11:28:30.669Z,4.17
2019-02-15T11:29:34.376Z,9.13
2019-02-15T11:30:38.047Z,4.80
2019-02-15T11:31:41.784Z,10.77
2019-02-15T11:32:45.582Z,5.93
2019-02-15T11:33:49.217Z,3.10
2019-02-15T11:34:52.869Z,3.90
2019-02-15T11:35:56.623Z,4.53
2019-02-15T11:37:00.330Z,1.93
2019-02-15T11:38:03.985Z,3.90
2019-02-15T11:39:09.077Z,2.50
2019-02-15T11:40:15.973Z,2.80
2019-02-15T11:41:19.628Z,7.53
2019-02-15T11:42:23.257Z,2.90
2019-02-15T11:43:26.959Z,5.00
2019-02-15T11:44:30.653Z,8.23
2019-02-15T11:45:34.280Z,2.17
2019-02-15T11:46:37.944Z,5.50
2019-02-15T11:47:41.721Z,2.77
2019-02-15T11:48:45.355Z,2.67
2019-02-15T11:49:48.904Z,6.13
2019-02-15T11:50:53.534Z,4.87
2019-02-15T11:51:57.278Z,7.30
2019-02-15T11:53:01.008Z,3.73
2019-02-15T11:54:04.851Z,5.43
2019-02-15T11:55:10.182Z,4.47
2019-02-15T11:56:13.814Z,3.53
2019-02-15T11:57:17.474Z,2.23
2019-02-15T11:58:21.104Z,1.43
2019-02-15T11:59:24.729Z,5.80
2019-02-15T12:00:37.537Z,2.60
2019-02-15T12:01:41.153Z,4.33
2019-02-15T12:02:44.894Z,2.93
2019-02-15T12:03:48.631Z,3.30
2019-02-15T12:04:52.280Z,5.00
2019-02-15T12:05:55.942Z,4.67
2019-02-15T12:06:59.518Z,2.73
2019-02-15T12:08:03.242Z,2.33
2019-02-15T12:09:06.943Z,2.87
2019-02-15T12:10:11.660Z,7.07
2019-02-15T12:11:15.695Z,6.17
2019-02-15T12:12:19.317Z,5.27
2019-02-15T12:13:23.029Z,11.77
2019-02-15T12:14:26.715Z,9.80
2019-02-15T12:15:30.387Z,5.03
2019-02-15T12:16:34.683Z,9.60
2019-02-15T12:17:38.411Z,5.10
2019-02-15T12:18:42.463Z,8.30
2019-02-15T12:19:46.207Z,21.97
2019-02-15T12:20:49.910Z,21.50
2019-02-15T12:21:53.570Z,6.97
2019-02-15T12:22:57.266Z,5.43
2019-02-15T12:24:01.426Z,5.83
2019-02-15T12:25:05.646Z,4.87
2019-02-15T12:26:09.279Z,6.53
2019-02-15T12:27:12.993Z,14.43
2019-02-15T12:28:16.687Z,4.23
2019-02-15T12:29:20.342Z,6.47
2019-02-15T12:30:23.970Z,8.07
2019-02-15T12:31:27.616Z,8.73
2019-02-15T12:32:31.319Z,4.30
2019-02-15T12:33:35.429Z,11.90
2019-02-15T12:34:39.108Z,4.77
2019-02-15T12:35:42.742Z,5.17
2019-02-15T12:36:46.367Z,3.67
2019-02-15T12:38:08.036Z,4.27
2019-02-15T12:39:14.232Z,7.17
2019-02-15T12:40:17.287Z,2.83
2019-02-15T12:41:20.900Z,3.73
2019-02-15T12:42:24.548Z,10.00
2019-02-15T12:43:28.115Z,20.73
2019-02-15T12:44:31.758Z,11.27
2019-02-15T12:45:35.436Z,12.37
2019-02-15T12:46:39.152Z,7.43
2019-02-15T12:47:42.792Z,5.00
2019-02-15T12:48:46.419Z,5.73
2019-02-15T12:49:50.055Z,5.67
2019-02-15T12:50:53.720Z,6.07
2019-02-15T12:51:57.348Z,5.50
2019-02-15T12:53:01.038Z,4.83
2019-02-15T12:54:04.689Z,8.30
2019-02-15T12:55:08.598Z,10.60
2019-02-15T12:56:12.287Z,7.27
2019-02-15T12:57:15.904Z,6.77
2019-02-15T12:58:19.548Z,4.73
2019-02-15T12:59:23.254Z,6.57
2019-02-15T13:00:26.892Z,3.00
2019-02-15T13:01:30.563Z,3.70
2019-02-15T13:02:34.195Z,6.07
2019-02-15T13:03:37.829Z,3.93
2019-02-15T13:04:41.469Z,3.77
2019-02-15T13:05:45.102Z,9.50
2019-02-15T13:06:48.766Z,11.87
2019-02-15T13:07:52.464Z,12.17
2019-02-15T13:08:56.096Z,12.10
2019-02-15T13:09:59.740Z,21.90
2019-02-15T13:11:03.454Z,13.87
2019-02-15T13:12:07.116Z,12.23
2019-02-15T13:13:10.759Z,28.10
2019-02-15T13:14:14.461Z,24.57
2019-02-15T13:15:18.155Z,19.57
2019-02-15T13:16:21.798Z,25.07
2019-02-15T13:17:25.537Z,19.50
2019-02-15T13:18:29.252Z,20.83
2019-02-15T13:19:32.881Z,14.13
2019-02-15T13:20:36.514Z,14.27
2019-02-15T13:21:40.151Z,13.13
2019-02-15T13:22:43.811Z,11.67
2019-02-15T13:23:47.447Z,11.97
2019-02-15T13:24:51.079Z,7.27
2019-02-15T13:25:54.996Z,34.43
2019-02-15T13:26:58.737Z,36.57
2019-02-15T13:28:02.497Z,73.00
2019-02-15T13:29:06.228Z,26.43
2019-02-15T13:30:13.188Z,75.80
2019-02-15T13:31:16.830Z,60.57
2019-02-15T13:32:20.535Z,42.30
2019-02-15T13:33:24.291Z,26.70
2019-02-15T13:34:27.923Z,18.83
2019-02-15T13:35:31.626Z,11.77
2019-02-15T13:36:35.257Z,14.27
2019-02-15T13:37:38.890Z,10.70
2019-02-15T13:38:42.549Z,9.50
2019-02-15T13:39:46.240Z,9.03
2019-02-15T13:40:49.942Z,4.97
2019-02-15T13:41:53.642Z,13.37
2019-02-15T13:42:57.279Z,12.23
2019-02-15T13:44:00.879Z,11.50
2019-02-15T13:45:06.381Z,6.57
2019-02-15T13:46:10.399Z,6.10
2019-02-15T13:47:14.032Z,16.07
2019-02-15T13:48:17.674Z,7.17
2019-02-15T13:49:21.338Z,9.17
2019-02-15T13:50:24.983Z,6.57
2019-02-15T13:51:28.670Z,8.27
2019-02-15T13:52:32.382Z,5.00
2019-02-15T13:53:36.092Z,9.47
2019-02-15T13:54:39.721Z,7.17
2019-02-15T13:55:43.811Z,11.77
2019-02-15T13:56:47.405Z,6.83
2019-02-15T13:57:51.041Z,4.43